Private Wetterstation Sandau
Wetterdaten: Freitag, 11.01.2013
Datum Zeit Temp. A. Feuchte A. Luftdruck Regen Wind Richtung Richtung Taupunkt Windchill
11.01.2013 00:01 -0,5 C 89 % 1009,9 hPa 0,0 l/m 3,6 km/h (1 Bft) NO 45 -2,1 C -0,5 C
11.01.2013 00:06 -0,5 C 89 % 1009,9 hPa 0,0 l/m 4,0 km/h (1 Bft) NO 45 -2,1 C -0,5 C
11.01.2013 00:11 -0,5 C 89 % 1010,0 hPa 0,0 l/m 8,3 km/h (2 Bft) NO 45 -2,1 C -3,4 C
11.01.2013 00:16 -0,4 C 89 % 1010,1 hPa 0,0 l/m 5,0 km/h (1 Bft) NO 45 -2,0 C -2,0 C
11.01.2013 00:21 -0,4 C 89 % 1010,1 hPa 0,0 l/m 4,0 km/h (1 Bft) NO 45 -2,0 C -0,4 C
11.01.2013 00:26 -0,4 C 89 % 1010,0 hPa 0,0 l/m 6,5 km/h (2 Bft) NO 45 -2,0 C -2,7 C
11.01.2013 00:31 -0,4 C 88 % 1010,0 hPa 0,0 l/m 6,5 km/h (2 Bft) NO 45 -2,1 C -2,7 C
11.01.2013 00:36 -0,4 C 88 % 1010,0 hPa 0,0 l/m 4,3 km/h (1 Bft) NO 45 -2,1 C -0,4 C
11.01.2013 00:41 -0,4 C 88 % 1010,0 hPa 0,0 l/m 13,0 km/h (3 Bft) NO 45 -2,1 C -4,5 C
11.01.2013 00:46 -0,3 C 87 % 1010,1 hPa 0,0 l/m 10,1 km/h (2 Bft) NO 45 -2,2 C -3,7 C
11.01.2013 00:51 -0,3 C 86 % 1010,1 hPa 0,0 l/m 7,9 km/h (2 Bft) NO 45 -2,3 C -3,1 C
11.01.2013 00:56 -0,3 C 86 % 1010,0 hPa 0,0 l/m 9,4 km/h (2 Bft) NO 45 -2,3 C -3,5 C
11.01.2013 01:01 -0,2 C 86 % 1010,0 hPa 0,0 l/m 5,0 km/h (1 Bft) NO 45 -2,3 C -1,8 C
11.01.2013 01:06 -0,2 C 85 % 1010,1 hPa 0,0 l/m 7,2 km/h (2 Bft) NO 45 -2,4 C -2,7 C
11.01.2013 01:11 -0,2 C 86 % 1010,2 hPa 0,0 l/m 10,1 km/h (2 Bft) NO 45 -2,3 C -3,6 C
11.01.2013 01:16 -0,3 C 85 % 1010,1 hPa 0,0 l/m 5,4 km/h (1 Bft) NO 45 -2,5 C -2,1 C
11.01.2013 01:21 -0,3 C 85 % 1010,2 hPa 0,0 l/m 5,8 km/h (2 Bft) NO 45 -2,5 C -2,3 C
11.01.2013 01:26 -0,3 C 85 % 1010,3 hPa 0,0 l/m 5,0 km/h (1 Bft) NO 45 -2,5 C -1,9 C
11.01.2013 01:31 -0,2 C 85 % 1010,3 hPa 0,0 l/m 6,5 km/h (2 Bft) NO 45 -2,4 C -2,5 C
11.01.2013 01:36 -0,3 C 85 % 1010,3 hPa 0,0 l/m 7,2 km/h (2 Bft) NO 45 -2,5 C -2,8 C
11.01.2013 01:41 -0,2 C 85 % 1010,1 hPa 0,0 l/m 2,5 km/h (1 Bft) NO 45 -2,4 C -0,2 C
11.01.2013 01:46 -0,2 C 85 % 1010,2 hPa 0,0 l/m 6,8 km/h (2 Bft) NO 45 -2,4 C -2,6 C
11.01.2013 01:51 -0,2 C 86 % 1010,2 hPa 0,0 l/m 4,7 km/h (1 Bft) NO 45 -2,3 C -1,7 C
11.01.2013 01:56 -0,2 C 86 % 1010,3 hPa 0,0 l/m 6,8 km/h (2 Bft) NO 45 -2,3 C -2,6 C
11.01.2013 02:01 -0,2 C 86 % 1010,2 hPa 0,0 l/m 5,0 km/h (1 Bft) NO 45 -2,3 C -1,8 C
11.01.2013 02:06 -0,2 C 86 % 1010,2 hPa 0,0 l/m 6,8 km/h (2 Bft) NO 45 -2,3 C -2,6 C
11.01.2013 02:11 -0,2 C 86 % 1010,3 hPa 0,0 l/m 6,8 km/h (2 Bft) NO 45 -2,3 C -2,6 C
11.01.2013 02:16 -0,2 C 86 % 1010,3 hPa 0,0 l/m 6,5 km/h (2 Bft) NO 45 -2,3 C -2,5 C
11.01.2013 02:21 -0,2 C 86 % 1010,5 hPa 0,0 l/m 7,6 km/h (2 Bft) NO 45 -2,3 C -2,8 C
11.01.2013 02:26 -0,2 C 86 % 1010,3 hPa 0,0 l/m 7,6 km/h (2 Bft) NO 45 -2,3 C -2,8 C
11.01.2013 02:31 -0,2 C 86 % 1010,4 hPa 0,0 l/m 2,5 km/h (1 Bft) NO 45 -2,3 C -0,2 C
11.01.2013 02:36 -0,2 C 86 % 1010,4 hPa 0,0 l/m 12,6 km/h (3 Bft) NO 45 -2,3 C -4,2 C
11.01.2013 02:41 -0,2 C 85 % 1010,6 hPa 0,0 l/m 5,4 km/h (1 Bft) NO 45 -2,4 C -2,0 C
11.01.2013 02:46 -0,2 C 85 % 1010,5 hPa 0,0 l/m 14,4 km/h (3 Bft) NO 45 -2,4 C -4,5 C
11.01.2013 02:51 -0,2 C 85 % 1010,4 hPa 0,0 l/m 5,4 km/h (1 Bft) NO 45 -2,4 C -2,0 C
11.01.2013 02:56 -0,2 C 85 % 1010,5 hPa 0,0 l/m 13,0 km/h (3 Bft) NO 45 -2,4 C -4,3 C
11.01.2013 03:01 -0,2 C 85 % 1010,4 hPa 0,0 l/m 7,2 km/h (2 Bft) NO 45 -2,4 C -2,7 C
11.01.2013 03:06 -0,2 C 85 % 1010,5 hPa 0,0 l/m 4,0 km/h (1 Bft) NO 45 -2,4 C -0,2 C
11.01.2013 03:11 -0,2 C 85 % 1010,5 hPa 0,0 l/m 12,6 km/h (3 Bft) NO 45 -2,4 C -4,2 C
11.01.2013 03:16 -0,2 C 84 % 1010,3 hPa 0,0 l/m 7,6 km/h (2 Bft) NO 45 -2,6 C -2,8 C
11.01.2013 03:21 -0,3 C 84 % 1010,4 hPa 0,0 l/m 6,5 km/h (2 Bft) NO 45 -2,7 C -2,6 C
11.01.2013 03:26 -0,4 C 84 % 1010,6 hPa 0,0 l/m 9,0 km/h (2 Bft) NO 45 -2,8 C -3,5 C
11.01.2013 03:31 -0,4 C 84 % 1010,6 hPa 0,0 l/m 5,4 km/h (1 Bft) NO 45 -2,8 C -2,2 C
11.01.2013 03:36 -0,4 C 84 % 1010,6 hPa 0,0 l/m 11,9 km/h (2 Bft) NO 45 -2,8 C -4,3 C
11.01.2013 03:41 -0,4 C 84 % 1010,6 hPa 0,0 l/m 5,8 km/h (2 Bft) NO 45 -2,8 C -2,4 C
11.01.2013 03:46 -0,4 C 84 % 1010,7 hPa 0,0 l/m 11,2 km/h (2 Bft) NO 45 -2,8 C -4,1 C
11.01.2013 03:51 -0,4 C 84 % 1010,6 hPa 0,0 l/m 9,4 km/h (2 Bft) NO 45 -2,8 C -3,6 C
11.01.2013 03:56 -0,4 C 84 % 1010,6 hPa 0,0 l/m 7,2 km/h (2 Bft) NO 45 -2,8 C -2,9 C
11.01.2013 04:01 -0,4 C 84 % 1010,8 hPa 0,0 l/m 18,4 km/h (3 Bft) NO 45 -2,8 C -5,5 C
11.01.2013 04:06 -0,4 C 84 % 1010,9 hPa 0,0 l/m 8,3 km/h (2 Bft) NO 45 -2,8 C -3,3 C
11.01.2013 04:11 -0,4 C 84 % 1010,9 hPa 0,0 l/m 13,0 km/h (3 Bft) NO 45 -2,8 C -4,5 C
11.01.2013 04:16 -0,4 C 84 % 1010,9 hPa 0,0 l/m 16,6 km/h (3 Bft) NO 45 -2,8 C -5,2 C
11.01.2013 04:21 -0,4 C 84 % 1010,8 hPa 0,0 l/m 11,9 km/h (2 Bft) NO 45 -2,8 C -4,3 C
11.01.2013 04:26 -0,4 C 84 % 1010,9 hPa 0,0 l/m 8,3 km/h (2 Bft) NO 45 -2,8 C -3,3 C
11.01.2013 04:31 -0,4 C 84 % 1010,9 hPa 0,0 l/m 23,4 km/h (4 Bft) NO 45 -2,8 C -6,2 C
11.01.2013 04:36 -0,4 C 82 % 1011,0 hPa 0,0 l/m 10,4 km/h (2 Bft) NO 45 -3,1 C -3,9 C
11.01.2013 04:41 -0,4 C 83 % 1011,0 hPa 0,0 l/m 17,3 km/h (3 Bft) NO 45 -2,9 C -5,3 C
11.01.2013 04:46 -0,4 C 82 % 1011,0 hPa 0,0 l/m 8,6 km/h (2 Bft) NO 45 -3,1 C -3,4 C
11.01.2013 04:51 -0,4 C 82 % 1011,0 hPa 0,0 l/m 6,1 km/h (2 Bft) NO 45 -3,1 C -2,5 C
11.01.2013 04:56 -0,5 C 82 % 1011,0 hPa 0,0 l/m 10,8 km/h (2 Bft) NO 45 -3,2 C -4,1 C
11.01.2013 05:01 -0,5 C 82 % 1010,9 hPa 0,0 l/m 9,4 km/h (2 Bft) NO 45 -3,2 C -3,7 C
11.01.2013 05:06 -0,5 C 82 % 1011,1 hPa 0,0 l/m 13,0 km/h (3 Bft) NO 45 -3,2 C -4,6 C
11.01.2013 05:11 -0,5 C 83 % 1011,1 hPa 0,0 l/m 11,5 km/h (2 Bft) NO 45 -3,0 C -4,3 C
11.01.2013 05:16 -0,5 C 83 % 1011,1 hPa 0,0 l/m 8,6 km/h (2 Bft) NO 45 -3,0 C -3,5 C
11.01.2013 05:21 -0,6 C 82 % 1011,1 hPa 0,0 l/m 17,3 km/h (3 Bft) NO 45 -3,3 C -5,6 C
11.01.2013 05:26 -0,6 C 83 % 1011,1 hPa 0,0 l/m 18,4 km/h (3 Bft) NO 45 -3,1 C -5,8 C
11.01.2013 05:31 -0,6 C 84 % 1011,3 hPa 0,0 l/m 10,1 km/h (2 Bft) NO 45 -3,0 C -4,1 C
11.01.2013 05:36 -0,6 C 84 % 1011,4 hPa 0,0 l/m 9,4 km/h (2 Bft) NO 45 -3,0 C -3,9 C
11.01.2013 05:41 -0,6 C 84 % 1011,3 hPa 0,0 l/m 8,6 km/h (2 Bft) NO 45 -3,0 C -3,6 C
11.01.2013 05:46 -0,6 C 85 % 1011,3 hPa 0,0 l/m 10,8 km/h (2 Bft) NO 45 -2,8 C -4,2 C
11.01.2013 05:51 -0,6 C 85 % 1011,5 hPa 0,0 l/m 10,1 km/h (2 Bft) NO 45 -2,8 C -4,1 C
11.01.2013 05:56 -0,6 C 85 % 1011,6 hPa 0,0 l/m 18,4 km/h (3 Bft) NO 45 -2,8 C -5,8 C
11.01.2013 06:01 -0,7 C 85 % 1011,7 hPa 0,0 l/m 10,8 km/h (2 Bft) NO 45 -2,9 C -4,4 C
11.01.2013 06:06 -0,7 C 85 % 1011,6 hPa 0,0 l/m 5,8 km/h (2 Bft) NO 45 -2,9 C -2,7 C
11.01.2013 06:11 -0,7 C 85 % 1011,7 hPa 0,0 l/m 13,0 km/h (3 Bft) NO 45 -2,9 C -4,9 C
11.01.2013 06:16 -0,7 C 85 % 1011,7 hPa 0,0 l/m 5,8 km/h (2 Bft) NO 45 -2,9 C -2,7 C
11.01.2013 06:21 -0,8 C 86 % 1011,8 hPa 0,0 l/m 3,2 km/h (1 Bft) NO 45 -2,8 C -0,8 C
11.01.2013 06:26 -0,8 C 86 % 1011,6 hPa 0,0 l/m 6,5 km/h (2 Bft) NO 45 -2,8 C -3,1 C
11.01.2013 06:31 -0,8 C 86 % 1011,7 hPa 0,0 l/m 14,0 km/h (3 Bft) NO 45 -2,8 C -5,2 C
11.01.2013 06:36 -0,7 C 86 % 1011,9 hPa 0,0 l/m 4,7 km/h (1 Bft) NO 45 -2,7 C -2,2 C
11.01.2013 06:41 -0,7 C 86 % 1012,0 hPa 0,0 l/m 8,6 km/h (2 Bft) NO 45 -2,7 C -3,7 C
11.01.2013 06:46 -0,7 C 86 % 1012,1 hPa 0,0 l/m 4,7 km/h (1 Bft) NO 45 -2,7 C -2,2 C
11.01.2013 06:51 -0,7 C 86 % 1012,1 hPa 0,0 l/m 10,4 km/h (2 Bft) NO 45 -2,7 C -4,3 C
11.01.2013 06:56 -0,7 C 86 % 1012,1 hPa 0,0 l/m 7,6 km/h (2 Bft) NO 45 -2,7 C -3,4 C
11.01.2013 07:01 -0,7 C 86 % 1012,2 hPa 0,0 l/m 4,7 km/h (1 Bft) NO 45 -2,7 C -2,2 C
11.01.2013 07:06 -0,8 C 86 % 1012,4 hPa 0,0 l/m 0,0 km/h (0 Bft) NO 45 -2,8 C -0,8 C
11.01.2013 07:11 -0,8 C 86 % 1012,4 hPa 0,0 l/m 5,0 km/h (1 Bft) NO 45 -2,8 C -2,5 C
11.01.2013 07:16 -0,9 C 86 % 1012,4 hPa 0,0 l/m 2,5 km/h (1 Bft) NO 45 -2,9 C -0,9 C
11.01.2013 07:21 -0,9 C 86 % 1012,5 hPa 0,0 l/m 5,4 km/h (1 Bft) NO 45 -2,9 C -2,8 C
11.01.2013 07:26 -1,0 C 86 % 1012,6 hPa 0,0 l/m 2,5 km/h (1 Bft) NO 45 -3,0 C -1,0 C
11.01.2013 07:31 -1,1 C 86 % 1012,6 hPa 0,0 l/m 3,2 km/h (1 Bft) NO 45 -3,1 C -1,1 C
11.01.2013 07:36 -1,1 C 86 % 1012,8 hPa 0,0 l/m 2,9 km/h (1 Bft) NO 45 -3,1 C -1,1 C
11.01.2013 07:41 -1,1 C 86 % 1012,8 hPa 0,0 l/m 4,3 km/h (1 Bft) NO 45 -3,1 C -1,1 C
11.01.2013 07:46 -1,2 C 86 % 1012,8 hPa 0,0 l/m 5,4 km/h (1 Bft) NO 45 -3,2 C -3,1 C
11.01.2013 07:51 -1,2 C 86 % 1013,0 hPa 0,0 l/m 6,5 km/h (2 Bft) NO 45 -3,2 C -3,6 C
11.01.2013 07:56 -1,3 C 86 % 1012,8 hPa 0,0 l/m 4,0 km/h (1 Bft) NO 45 -3,3 C -1,3 C
11.01.2013 08:01 -1,3 C 87 % 1013,0 hPa 0,0 l/m 6,5 km/h (2 Bft) NO 45 -3,2 C -3,7 C
11.01.2013 08:06 -1,2 C 86 % 1013,1 hPa 0,0 l/m 4,0 km/h (1 Bft) NO 45 -3,2 C -1,2 C
11.01.2013 08:11 -1,2 C 86 % 1013,3 hPa 0,0 l/m 6,5 km/h (2 Bft) NO 45 -3,2 C -3,6 C
11.01.2013 08:16 -1,2 C 85 % 1013,1 hPa 0,0 l/m 1,8 km/h (1 Bft) NO 45 -3,4 C -1,2 C
11.01.2013 08:21 -1,2 C 85 % 1013,3 hPa 0,0 l/m 4,7 km/h (1 Bft) NO 45 -3,4 C -2,8 C
11.01.2013 08:26 -1,2 C 85 % 1013,5 hPa 0,0 l/m 3,2 km/h (1 Bft) NO 45 -3,4 C -1,2 C
11.01.2013 08:31 -1,2 C 85 % 1013,4 hPa 0,0 l/m 4,0 km/h (1 Bft) NO 45 -3,4 C -1,2 C
11.01.2013 08:36 -1,2 C 86 % 1013,4 hPa 0,0 l/m 4,7 km/h (1 Bft) NO 45 -3,2 C -2,8 C
11.01.2013 08:41 -1,2 C 86 % 1013,5 hPa 0,0 l/m 8,6 km/h (2 Bft) NO 45 -3,2 C -4,3 C
11.01.2013 08:46 -1,1 C 86 % 1013,6 hPa 0,0 l/m 3,2 km/h (1 Bft) NO 45 -3,1 C -1,1 C
11.01.2013 08:51 -1,1 C 86 % 1013,5 hPa 0,0 l/m 3,2 km/h (1 Bft) NO 45 -3,1 C -1,1 C
11.01.2013 08:56 -1,1 C 86 % 1013,6 hPa 0,0 l/m 3,6 km/h (1 Bft) NO 45 -3,1 C -1,1 C
11.01.2013 09:01 -1,1 C 86 % 1013,7 hPa 0,0 l/m 6,1 km/h (2 Bft) NO 45 -3,1 C -3,3 C
11.01.2013 09:06 -1,1 C 86 % 1013,7 hPa 0,0 l/m 5,4 km/h (1 Bft) NO 45 -3,1 C -3,0 C
11.01.2013 09:11 -1,2 C 86 % 1013,7 hPa 0,0 l/m 4,7 km/h (1 Bft) NO 45 -3,2 C -2,8 C
11.01.2013 09:16 -1,1 C 86 % 1013,8 hPa 0,0 l/m 4,3 km/h (1 Bft) W 270 -3,1 C -1,1 C
11.01.2013 09:21 -1,1 C 87 % 1013,8 hPa 0,0 l/m 8,3 km/h (2 Bft) W 270 -3,0 C -4,1 C
11.01.2013 09:26 -1,1 C 87 % 1013,9 hPa 0,0 l/m 2,5 km/h (1 Bft) W 270 -3,0 C -1,1 C
11.01.2013 09:31 -1,0 C 87 % 1013,8 hPa 0,0 l/m 10,8 km/h (2 Bft) W 270 -2,9 C -4,7 C
11.01.2013 09:36 -1,0 C 87 % 1013,9 hPa 0,0 l/m 6,5 km/h (2 Bft) W 270 -2,9 C -3,4 C
11.01.2013 09:41 -0,9 C 87 % 1013,9 hPa 0,0 l/m 9,0 km/h (2 Bft) W 270 -2,8 C -4,1 C
11.01.2013 09:46 -0,9 C 87 % 1014,0 hPa 0,0 l/m 9,0 km/h (2 Bft) W 270 -2,8 C -4,1 C
11.01.2013 09:51 -0,8 C 87 % 1014,0 hPa 0,0 l/m 9,4 km/h (2 Bft) W 270 -2,7 C -4,1 C
11.01.2013 09:56 -0,6 C 87 % 1014,0 hPa 0,0 l/m 14,8 km/h (3 Bft) W 270 -2,5 C -5,1 C
11.01.2013 10:01 -0,1 C 87 % 1014,0 hPa 0,0 l/m 7,2 km/h (2 Bft) W 270 -2,0 C -2,6 C
11.01.2013 10:06 -0,1 C 86 % 1014,0 hPa 0,0 l/m 6,5 km/h (2 Bft) W 270 -2,2 C -2,3 C
11.01.2013 10:11 -0,2 C 85 % 1014,0 hPa 0,0 l/m 9,7 km/h (2 Bft) W 270 -2,4 C -3,5 C
11.01.2013 10:16 -0,2 C 85 % 1014,0 hPa 0,0 l/m 10,1 km/h (2 Bft) W 270 -2,4 C -3,6 C
11.01.2013 10:21 -0,2 C 84 % 1014,1 hPa 0,0 l/m 7,6 km/h (2 Bft) W 270 -2,6 C -2,8 C
11.01.2013 10:26 -0,2 C 84 % 1014,1 hPa 0,0 l/m 7,2 km/h (2 Bft) W 270 -2,6 C -2,7 C
11.01.2013 10:31 -0,2 C 84 % 1014,1 hPa 0,0 l/m 12,2 km/h (2 Bft) W 270 -2,6 C -4,1 C
11.01.2013 10:36 -0,1 C 84 % 1014,1 hPa 0,0 l/m 9,7 km/h (2 Bft) W 270 -2,5 C -3,4 C
11.01.2013 10:41 -0,1 C 84 % 1014,3 hPa 0,0 l/m 8,6 km/h (2 Bft) W 270 -2,5 C -3,0 C
11.01.2013 10:46 -0,1 C 83 % 1014,3 hPa 0,0 l/m 7,9 km/h (2 Bft) W 270 -2,6 C -2,8 C
11.01.2013 10:51 0,0 C 83 % 1014,2 hPa 0,0 l/m 10,4 km/h (2 Bft) W 270 -2,5 C -3,4 C
11.01.2013 10:56 0,1 C 83 % 1014,3 hPa 0,0 l/m 4,7 km/h (1 Bft) W 270 -2,4 C -1,3 C
11.01.2013 11:01 0,2 C 83 % 1014,4 hPa 0,0 l/m 12,2 km/h (2 Bft) W 270 -2,3 C -3,6 C
11.01.2013 11:06 0,3 C 83 % 1014,5 hPa 0,0 l/m 8,3 km/h (2 Bft) N 360 -2,2 C -2,5 C
11.01.2013 11:11 0,4 C 82 % 1014,3 hPa 0,0 l/m 9,4 km/h (2 Bft) N 360 -2,3 C -2,7 C
11.01.2013 11:16 0,6 C 81 % 1014,3 hPa 0,0 l/m 10,1 km/h (2 Bft) W-NW 292 -2,3 C -2,6 C
11.01.2013 11:21 0,8 C 81 % 1014,4 hPa 0,0 l/m 8,6 km/h (2 Bft) W 270 -2,1 C -2,0 C
11.01.2013 11:26 0,8 C 81 % 1014,3 hPa 0,0 l/m 9,4 km/h (2 Bft) N-NW 337 -2,1 C -2,2 C
11.01.2013 11:31 0,8 C 81 % 1014,4 hPa 0,0 l/m 8,3 km/h (2 Bft) W-NW 292 -2,1 C -1,9 C
11.01.2013 11:36 0,8 C 81 % 1014,4 hPa 0,0 l/m 5,8 km/h (2 Bft) N-NW 337 -2,1 C -1,0 C
11.01.2013 11:41 0,9 C 81 % 1014,5 hPa 0,0 l/m 10,4 km/h (2 Bft) NW 315 -2,0 C -2,3 C
11.01.2013 11:46 0,9 C 81 % 1014,4 hPa 0,0 l/m 6,1 km/h (2 Bft) N-NW 337 -2,0 C -1,0 C
11.01.2013 11:51 0,9 C 81 % 1014,3 hPa 0,0 l/m 3,2 km/h (1 Bft) W-NW 292 -2,0 C 0,9 C
11.01.2013 11:56 1,1 C 82 % 1014,3 hPa 0,0 l/m 5,0 km/h (1 Bft) N-NW 337 -1,6 C -0,3 C
11.01.2013 12:01 1,1 C 81 % 1014,2 hPa 0,0 l/m 14,0 km/h (3 Bft) W-NW 292 -1,8 C -2,9 C
11.01.2013 12:06 1,1 C 81 % 1014,2 hPa 0,0 l/m 4,3 km/h (1 Bft) W 270 -1,8 C 1,1 C
11.01.2013 12:11 1,0 C 81 % 1014,4 hPa 0,0 l/m 7,6 km/h (2 Bft) N-NW 337 -1,9 C -1,4 C
11.01.2013 12:16 0,9 C 80 % 1014,5 hPa 0,0 l/m 4,7 km/h (1 Bft) N-NO 22 -2,2 C -0,4 C
11.01.2013 12:21 0,9 C 79 % 1014,4 hPa 0,0 l/m 9,4 km/h (2 Bft) NW 315 -2,3 C -2,1 C
11.01.2013 12:26 0,9 C 79 % 1014,4 hPa 0,0 l/m 9,4 km/h (2 Bft) NW 315 -2,3 C -2,1 C
11.01.2013 12:31 0,9 C 80 % 1014,5 hPa 0,0 l/m 10,1 km/h (2 Bft) NW 315 -2,2 C -2,3 C
11.01.2013 12:36 0,9 C 81 % 1014,5 hPa 0,0 l/m 9,0 km/h (2 Bft) NW 315 -2,0 C -2,0 C
11.01.2013 12:41 0,9 C 81 % 1014,4 hPa 0,0 l/m 10,8 km/h (2 Bft) NW 315 -2,0 C -2,4 C
11.01.2013 12:46 0,9 C 81 % 1014,5 hPa 0,0 l/m 13,7 km/h (3 Bft) NW 315 -2,0 C -3,1 C
11.01.2013 12:51 0,9 C 81 % 1014,5 hPa 0,0 l/m 4,3 km/h (1 Bft) NW 315 -2,0 C 0,9 C
11.01.2013 12:56 0,9 C 82 % 1014,5 hPa 0,0 l/m 10,8 km/h (2 Bft) NW 315 -1,8 C -2,4 C
11.01.2013 13:01 0,9 C 82 % 1014,5 hPa 0,0 l/m 11,9 km/h (2 Bft) NW 315 -1,8 C -2,7 C
11.01.2013 13:06 0,8 C 82 % 1014,5 hPa 0,0 l/m 8,3 km/h (2 Bft) NW 315 -1,9 C -1,9 C
11.01.2013 13:11 0,8 C 82 % 1014,6 hPa 0,0 l/m 10,1 km/h (2 Bft) NW 315 -1,9 C -2,4 C
11.01.2013 13:16 0,8 C 82 % 1014,6 hPa 0,0 l/m 11,5 km/h (2 Bft) NW 315 -1,9 C -2,7 C
11.01.2013 13:21 0,8 C 82 % 1014,5 hPa 0,0 l/m 5,0 km/h (1 Bft) NW 315 -1,9 C -0,7 C
11.01.2013 13:26 0,9 C 83 % 1014,5 hPa 0,0 l/m 6,1 km/h (2 Bft) W-NW 292 -1,7 C -1,0 C
11.01.2013 13:31 0,9 C 83 % 1014,5 hPa 0,0 l/m 14,4 km/h (3 Bft) NW 315 -1,7 C -3,2 C
11.01.2013 13:36 0,9 C 83 % 1014,6 hPa 0,0 l/m 6,8 km/h (2 Bft) NW 315 -1,7 C -1,3 C
11.01.2013 13:41 0,9 C 83 % 1014,4 hPa 0,0 l/m 6,8 km/h (2 Bft) N-NW 337 -1,7 C -1,3 C
11.01.2013 13:46 0,8 C 83 % 1014,5 hPa 0,0 l/m 8,6 km/h (2 Bft) NW 315 -1,8 C -2,0 C
11.01.2013 13:51 0,8 C 83 % 1014,6 hPa 0,0 l/m 6,1 km/h (2 Bft) W-NW 292 -1,8 C -1,1 C
11.01.2013 13:56 0,8 C 84 % 1014,5 hPa 0,0 l/m 11,5 km/h (2 Bft) NW 315 -1,6 C -2,7 C
11.01.2013 14:01 0,8 C 84 % 1014,5 hPa 0,0 l/m 9,4 km/h (2 Bft) NW 315 -1,6 C -2,2 C
11.01.2013 14:06 0,8 C 84 % 1014,7 hPa 0,0 l/m 8,3 km/h (2 Bft) NW 315 -1,6 C -1,9 C
11.01.2013 14:11 0,7 C 84 % 1014,7 hPa 0,0 l/m 14,0 km/h (3 Bft) NW 315 -1,7 C -3,4 C
11.01.2013 14:16 0,6 C 84 % 1014,6 hPa 0,0 l/m 23,4 km/h (4 Bft) W-NW 292 -1,8 C -4,9 C
11.01.2013 14:21 0,6 C 84 % 1014,7 hPa 0,0 l/m 15,8 km/h (3 Bft) N-NW 337 -1,8 C -3,8 C
11.01.2013 14:26 0,6 C 83 % 1014,7 hPa 0,0 l/m 5,0 km/h (1 Bft) NW 315 -1,9 C -0,9 C
11.01.2013 14:31 0,6 C 83 % 1014,9 hPa 0,0 l/m 10,8 km/h (2 Bft) NW 315 -1,9 C -2,8 C
11.01.2013 14:36 0,6 C 83 % 1014,9 hPa 0,0 l/m 13,0 km/h (3 Bft) N 360 -1,9 C -3,3 C
11.01.2013 14:41 0,6 C 84 % 1015,0 hPa 0,0 l/m 7,9 km/h (2 Bft) N-NW 337 -1,8 C -2,0 C
11.01.2013 14:46 0,6 C 84 % 1015,1 hPa 0,0 l/m 11,5 km/h (2 Bft) N-NW 337 -1,8 C -3,0 C
11.01.2013 14:51 0,6 C 84 % 1015,1 hPa 0,0 l/m 2,9 km/h (1 Bft) NW 315 -1,8 C 0,6 C
11.01.2013 14:56 0,6 C 85 % 1015,1 hPa 0,0 l/m 1,8 km/h (1 Bft) W 270 -1,6 C 0,6 C
11.01.2013 15:01 0,5 C 85 % 1015,0 hPa 0,0 l/m 20,5 km/h (4 Bft) W-NW 292 -1,7 C -4,7 C
11.01.2013 15:06 0,5 C 84 % 1015,0 hPa 0,0 l/m 15,8 km/h (3 Bft) W-NW 292 -1,9 C -3,9 C
11.01.2013 15:11 0,5 C 84 % 1015,1 hPa 0,0 l/m 13,7 km/h (3 Bft) N-NW 337 -1,9 C -3,6 C
11.01.2013 15:16 0,5 C 85 % 1015,2 hPa 0,0 l/m 10,1 km/h (2 Bft) N 360 -1,7 C -2,7 C
11.01.2013 15:21 0,4 C 85 % 1015,1 hPa 0,0 l/m 4,7 km/h (1 Bft) N-NW 337 -1,8 C -1,0 C
11.01.2013 15:26 0,4 C 85 % 1015,3 hPa 0,0 l/m 8,6 km/h (2 Bft) W 270 -1,8 C -2,5 C
11.01.2013 15:31 0,4 C 85 % 1015,3 hPa 0,0 l/m 9,0 km/h (2 Bft) NW 315 -1,8 C -2,6 C
11.01.2013 15:36 0,4 C 85 % 1015,4 hPa 0,0 l/m 5,4 km/h (1 Bft) W-NW 292 -1,8 C -1,3 C
11.01.2013 15:41 0,3 C 85 % 1015,4 hPa 0,0 l/m 12,2 km/h (2 Bft) W-NW 292 -1,9 C -3,5 C
11.01.2013 15:46 0,3 C 85 % 1015,4 hPa 0,0 l/m 5,0 km/h (1 Bft) W-NW 292 -1,9 C -1,2 C
11.01.2013 15:51 0,3 C 85 % 1015,5 hPa 0,0 l/m 4,7 km/h (1 Bft) NW 315 -1,9 C -1,1 C
11.01.2013 15:56 0,2 C 85 % 1015,5 hPa 0,0 l/m 10,8 km/h (2 Bft) W-NW 292 -2,0 C -3,3 C
11.01.2013 16:01 0,2 C 86 % 1015,5 hPa 0,0 l/m 13,7 km/h (3 Bft) NW 315 -1,9 C -3,9 C
11.01.2013 16:06 0,1 C 86 % 1015,4 hPa 0,0 l/m 7,9 km/h (2 Bft) N 360 -2,0 C -2,6 C
11.01.2013 16:11 0,1 C 86 % 1015,6 hPa 0,0 l/m 14,8 km/h (3 Bft) NW 315 -2,0 C -4,3 C
11.01.2013 16:16 -0,1 C 85 % 1015,6 hPa 0,0 l/m 9,4 km/h (2 Bft) W-SW 247 -2,3 C -3,3 C
11.01.2013 16:21 -0,1 C 85 % 1015,5 hPa 0,0 l/m 8,3 km/h (2 Bft) W-NW 292 -2,3 C -2,9 C
11.01.2013 16:26 -0,2 C 85 % 1015,5 hPa 0,0 l/m 5,8 km/h (2 Bft) N-NW 337 -2,4 C -2,2 C
11.01.2013 16:31 -0,2 C 85 % 1015,6 hPa 0,0 l/m 9,7 km/h (2 Bft) NW 315 -2,4 C -3,5 C
11.01.2013 16:36 -0,2 C 85 % 1015,6 hPa 0,0 l/m 5,8 km/h (2 Bft) N-NW 337 -2,4 C -2,2 C
11.01.2013 16:41 -0,2 C 85 % 1015,6 hPa 0,0 l/m 5,4 km/h (1 Bft) W-NW 292 -2,4 C -2,0 C
11.01.2013 16:46 -0,2 C 85 % 1015,7 hPa 0,0 l/m 11,5 km/h (2 Bft) N 360 -2,4 C -3,9 C
11.01.2013 16:51 -0,2 C 85 % 1015,6 hPa 0,0 l/m 23,0 km/h (4 Bft) N-NW 337 -2,4 C -5,9 C
11.01.2013 16:56 -0,2 C 86 % 1015,7 hPa 0,0 l/m 6,8 km/h (2 Bft) W-NW 292 -2,3 C -2,6 C
11.01.2013 17:01 -0,2 C 86 % 1015,7 hPa 0,0 l/m 5,0 km/h (1 Bft) N-NW 337 -2,3 C -1,8 C
11.01.2013 17:06 -0,2 C 86 % 1015,7 hPa 0,0 l/m 8,3 km/h (2 Bft) N-NW 337 -2,3 C -3,1 C
11.01.2013 17:11 -0,2 C 86 % 1015,7 hPa 0,0 l/m 10,4 km/h (2 Bft) N-NW 337 -2,3 C -3,7 C
11.01.2013 17:16 -0,2 C 86 % 1015,8 hPa 0,0 l/m 8,6 km/h (2 Bft) N-NW 337 -2,3 C -3,2 C
11.01.2013 17:21 -0,2 C 86 % 1015,7 hPa 0,0 l/m 10,4 km/h (2 Bft) NW 315 -2,3 C -3,7 C
11.01.2013 17:26 -0,2 C 86 % 1015,9 hPa 0,0 l/m 6,8 km/h (2 Bft) NW 315 -2,3 C -2,6 C
11.01.2013 17:31 -0,2 C 86 % 1015,9 hPa 0,0 l/m 7,6 km/h (2 Bft) NW 315 -2,3 C -2,8 C
11.01.2013 17:36 -0,2 C 87 % 1015,8 hPa 0,0 l/m 11,2 km/h (2 Bft) W-NW 292 -2,1 C -3,9 C
11.01.2013 17:41 -0,2 C 87 % 1016,0 hPa 0,0 l/m 11,2 km/h (2 Bft) N-NW 337 -2,1 C -3,9 C
11.01.2013 17:46 -0,2 C 87 % 1016,0 hPa 0,0 l/m 5,0 km/h (1 Bft) NW 315 -2,1 C -1,8 C
11.01.2013 17:51 -0,2 C 87 % 1016,2 hPa 0,0 l/m 6,5 km/h (2 Bft) W-NW 292 -2,1 C -2,5 C
11.01.2013 17:56 -0,2 C 87 % 1016,0 hPa 0,0 l/m 11,2 km/h (2 Bft) NW 315 -2,1 C -3,9 C
11.01.2013 18:01 -0,3 C 87 % 1016,0 hPa 0,0 l/m 4,7 km/h (1 Bft) N-NW 337 -2,2 C -1,8 C
11.01.2013 18:06 -0,4 C 88 % 1016,0 hPa 0,0 l/m 12,6 km/h (3 Bft) NW 315 -2,1 C -4,4 C
11.01.2013 18:11 -0,4 C 88 % 1016,2 hPa 0,0 l/m 5,8 km/h (2 Bft) NW 315 -2,1 C -2,4 C
11.01.2013 18:16 -0,4 C 88 % 1016,1 hPa 0,0 l/m 6,1 km/h (2 Bft) N-NW 337 -2,1 C -2,5 C
11.01.2013 18:21 -0,4 C 88 % 1016,2 hPa 0,0 l/m 8,3 km/h (2 Bft) NW 315 -2,1 C -3,3 C
11.01.2013 18:26 -0,4 C 88 % 1016,3 hPa 0,0 l/m 6,5 km/h (2 Bft) NW 315 -2,1 C -2,7 C
11.01.2013 18:31 -0,4 C 88 % 1016,3 hPa 0,0 l/m 3,6 km/h (1 Bft) W-NW 292 -2,1 C -0,4 C
11.01.2013 18:36 -0,3 C 88 % 1016,3 hPa 0,0 l/m 7,6 km/h (2 Bft) W 270 -2,0 C -3,0 C
11.01.2013 18:41 -0,3 C 88 % 1016,3 hPa 0,0 l/m 15,8 km/h (3 Bft) NW 315 -2,0 C -4,9 C
11.01.2013 18:46 -0,2 C 88 % 1016,3 hPa 0,0 l/m 6,5 km/h (2 Bft) NW 315 -1,9 C -2,5 C
11.01.2013 18:51 -0,2 C 88 % 1016,3 hPa 0,0 l/m 10,8 km/h (2 Bft) W-NW 292 -1,9 C -3,8 C
11.01.2013 18:56 -0,2 C 88 % 1016,1 hPa 0,0 l/m 13,7 km/h (3 Bft) NW 315 -1,9 C -4,4 C
11.01.2013 19:01 -0,2 C 88 % 1016,2 hPa 0,0 l/m 12,6 km/h (3 Bft) W-NW 292 -1,9 C -4,2 C
11.01.2013 19:06 -0,3 C 88 % 1016,3 hPa 0,0 l/m 5,0 km/h (1 Bft) W-NW 292 -2,0 C -1,9 C
11.01.2013 19:11 -0,4 C 89 % 1016,3 hPa 0,0 l/m 9,4 km/h (2 Bft) W-NW 292 -2,0 C -3,6 C
11.01.2013 19:16 -0,4 C 89 % 1016,3 hPa 0,0 l/m 4,0 km/h (1 Bft) W 270 -2,0 C -0,4 C
11.01.2013 19:21 -0,3 C 89 % 1016,3 hPa 0,0 l/m 8,6 km/h (2 Bft) N-NW 337 -1,9 C -3,3 C
11.01.2013 19:26 -0,4 C 89 % 1016,3 hPa 0,0 l/m 2,5 km/h (1 Bft) W-NW 292 -2,0 C -0,4 C
11.01.2013 19:31 -0,4 C 89 % 1016,4 hPa 0,0 l/m 7,2 km/h (2 Bft) NW 315 -2,0 C -2,9 C
11.01.2013 19:36 -0,4 C 89 % 1016,3 hPa 0,0 l/m 6,8 km/h (2 Bft) W-NW 292 -2,0 C -2,8 C
11.01.2013 19:41 -0,4 C 89 % 1016,4 hPa 0,0 l/m 4,3 km/h (1 Bft) NW 315 -2,0 C -0,4 C
11.01.2013 19:46 -0,4 C 89 % 1016,4 hPa 0,0 l/m 5,8 km/h (2 Bft) W-NW 292 -2,0 C -2,4 C
11.01.2013 19:51 -0,4 C 89 % 1016,3 hPa 0,0 l/m 5,8 km/h (2 Bft) NW 315 -2,0 C -2,4 C
11.01.2013 19:56 -0,4 C 89 % 1016,4 hPa 0,0 l/m 4,0 km/h (1 Bft) NW 315 -2,0 C -0,4 C
11.01.2013 20:01 -0,4 C 89 % 1016,5 hPa 0,0 l/m 5,4 km/h (1 Bft) N-NW 337 -2,0 C -2,2 C
11.01.2013 20:06 -0,5 C 89 % 1016,4 hPa 0,0 l/m 4,0 km/h (1 Bft) NW 315 -2,1 C -0,5 C
11.01.2013 20:11 -0,4 C 89 % 1016,5 hPa 0,0 l/m 5,8 km/h (2 Bft) N-NW 337 -2,0 C -2,4 C
11.01.2013 20:16 -0,4 C 89 % 1016,5 hPa 0,0 l/m 7,6 km/h (2 Bft) N-NO 22 -2,0 C -3,1 C
11.01.2013 20:21 -0,5 C 89 % 1016,4 hPa 0,0 l/m 9,4 km/h (2 Bft) NW 315 -2,1 C -3,7 C
11.01.2013 20:26 -0,5 C 89 % 1016,5 hPa 0,0 l/m 6,1 km/h (2 Bft) NW 315 -2,1 C -2,6 C
11.01.2013 20:31 -0,6 C 89 % 1016,7 hPa 0,0 l/m 3,6 km/h (1 Bft) W-SW 247 -2,2 C -0,6 C
11.01.2013 20:36 -0,6 C 89 % 1016,7 hPa 0,0 l/m 8,6 km/h (2 Bft) N-NO 22 -2,2 C -3,6 C
11.01.2013 20:41 -0,6 C 90 % 1016,8 hPa 0,0 l/m 4,7 km/h (1 Bft) N 360 -2,0 C -2,1 C
11.01.2013 20:46 -0,6 C 90 % 1016,8 hPa 0,0 l/m 4,7 km/h (1 Bft) N-NO 22 -2,0 C -2,1 C
11.01.2013 20:51 -0,5 C 90 % 1016,9 hPa 0,0 l/m 6,1 km/h (2 Bft) NW 315 -1,9 C -2,6 C
11.01.2013 20:56 -0,6 C 90 % 1017,1 hPa 0,0 l/m 2,9 km/h (1 Bft) N-NW 337 -2,0 C -0,6 C
11.01.2013 21:01 -0,5 C 90 % 1016,8 hPa 0,0 l/m 8,6 km/h (2 Bft) N-NW 337 -1,9 C -3,5 C
11.01.2013 21:06 -0,5 C 90 % 1016,9 hPa 0,0 l/m 0,0 km/h (0 Bft) N-NW 337 -1,9 C -0,5 C
11.01.2013 21:11 -0,5 C 90 % 1016,9 hPa 0,0 l/m 5,4 km/h (1 Bft) N 360 -1,9 C -2,3 C
11.01.2013 21:16 -0,6 C 90 % 1017,1 hPa 0,0 l/m 4,3 km/h (1 Bft) N-NO 22 -2,0 C -0,6 C
11.01.2013 21:21 -0,6 C 90 % 1017,1 hPa 0,0 l/m 5,8 km/h (2 Bft) N 360 -2,0 C -2,6 C
11.01.2013 21:26 -0,6 C 90 % 1017,1 hPa 0,0 l/m 4,3 km/h (1 Bft) N 360 -2,0 C -0,6 C
11.01.2013 21:31 -0,6 C 90 % 1017,1 hPa 0,0 l/m 5,8 km/h (2 Bft) N-NO 22 -2,0 C -2,6 C
11.01.2013 21:36 -0,6 C 90 % 1017,2 hPa 0,0 l/m 10,1 km/h (2 Bft) N-NO 22 -2,0 C -4,1 C
11.01.2013 21:41 -0,6 C 90 % 1017,3 hPa 0,0 l/m 8,6 km/h (2 Bft) N-NO 22 -2,0 C -3,6 C
11.01.2013 21:46 -0,7 C 90 % 1017,2 hPa 0,0 l/m 9,7 km/h (2 Bft) N 360 -2,1 C -4,1 C
11.01.2013 21:51 -0,7 C 89 % 1017,1 hPa 0,0 l/m 8,3 km/h (2 Bft) N-NO 22 -2,3 C -3,7 C
11.01.2013 21:56 -0,8 C 89 % 1017,2 hPa 0,0 l/m 3,2 km/h (1 Bft) N 360 -2,4 C -0,8 C
11.01.2013 22:01 -0,9 C 89 % 1017,2 hPa 0,0 l/m 3,6 km/h (1 Bft) N 360 -2,5 C -0,9 C
11.01.2013 22:06 -0,9 C 89 % 1017,3 hPa 0,0 l/m 4,0 km/h (1 Bft) N 360 -2,5 C -0,9 C
11.01.2013 22:11 -1,0 C 89 % 1017,4 hPa 0,0 l/m 3,6 km/h (1 Bft) NO 45 -2,6 C -1,0 C
11.01.2013 22:16 -1,0 C 89 % 1017,3 hPa 0,0 l/m 0,0 km/h (0 Bft) N 360 -2,6 C -1,0 C
11.01.2013 22:21 -1,0 C 89 % 1017,3 hPa 0,0 l/m 4,7 km/h (1 Bft) N-NO 22 -2,6 C -2,6 C
11.01.2013 22:26 -1,1 C 89 % 1017,4 hPa 0,0 l/m 4,3 km/h (1 Bft) N-NO 22 -2,7 C -1,1 C
11.01.2013 22:31 -1,1 C 89 % 1017,4 hPa 0,0 l/m 8,3 km/h (2 Bft) N-NW 337 -2,7 C -4,1 C
11.01.2013 22:36 -1,1 C 90 % 1017,4 hPa 0,0 l/m 3,6 km/h (1 Bft) N-NO 22 -2,5 C -1,1 C
11.01.2013 22:41 -1,1 C 90 % 1017,4 hPa 0,0 l/m 4,7 km/h (1 Bft) N 360 -2,5 C -2,7 C
11.01.2013 22:46 -1,1 C 90 % 1017,3 hPa 0,0 l/m 4,0 km/h (1 Bft) O-NO 67 -2,5 C -1,1 C
11.01.2013 22:51 -1,2 C 90 % 1017,4 hPa 0,0 l/m 5,4 km/h (1 Bft) W-NW 292 -2,6 C -3,1 C
11.01.2013 22:56 -1,3 C 89 % 1017,4 hPa 0,0 l/m 4,7 km/h (1 Bft) N-NW 337 -2,9 C -2,9 C
11.01.2013 23:01 -1,4 C 89 % 1017,4 hPa 0,0 l/m 0,0 km/h (0 Bft) NW 315 -3,0 C -1,4 C
11.01.2013 23:06 -1,5 C 89 % 1017,5 hPa 0,0 l/m 2,2 km/h (1 Bft) N-NW 337 -3,1 C -1,5 C
11.01.2013 23:11 -1,6 C 89 % 1017,5 hPa 0,0 l/m 5,0 km/h (1 Bft) NW 315 -3,2 C -3,4 C
11.01.2013 23:16 -1,6 C 89 % 1017,5 hPa 0,0 l/m 1,4 km/h (1 Bft) NW 315 -3,2 C -1,6 C
11.01.2013 23:21 -1,7 C 89 % 1017,5 hPa 0,0 l/m 5,8 km/h (2 Bft) NW 315 -3,3 C -3,9 C
11.01.2013 23:26 -1,7 C 89 % 1017,5 hPa 0,0 l/m 3,2 km/h (1 Bft) N-NW 337 -3,3 C -1,7 C
11.01.2013 23:31 -1,8 C 90 % 1017,6 hPa 0,0 l/m 0,0 km/h (0 Bft) N 360 -3,2 C -1,8 C
11.01.2013 23:36 -1,8 C 90 % 1017,5 hPa 0,0 l/m 5,4 km/h (1 Bft) N-NO 22 -3,2 C -3,8 C
11.01.2013 23:41 -1,8 C 90 % 1017,6 hPa 0,0 l/m 2,2 km/h (1 Bft) NW 315 -3,2 C -1,8 C
11.01.2013 23:46 -1,8 C 90 % 1017,6 hPa 0,0 l/m 5,0 km/h (1 Bft) N-NW 337 -3,2 C -3,6 C
11.01.2013 23:51 -1,9 C 90 % 1017,4 hPa 0,0 l/m 3,6 km/h (1 Bft) W 270 -3,3 C -1,9 C
11.01.2013 23:56 -2,0 C 90 % 1017,5 hPa 0,0 l/m 8,3 km/h (2 Bft) NO 45 -3,4 C -5,2 C
_ Min-Zeit 23:56 12:21 00:01 - 07:06 - - 23:56 04:31
Minimum _ -2,0 C 79 % 1009,9 hPa - 0,0 km/h (0 Bft) - - -3,4 C -6,2 C
_ Max-Zeit 11:56 20:41 23:31 00:01 04:31 - - 13:56 12:06
Maximum _ 1,1 C 90 % 1017,6 hPa 0,0 l/m 23,4 km/h
NO (4 Bft)
- - -1,6 C 1,1 C
Durchschnitt _ -0,3 C 86 % 1014,0 hPa #0,0 l/m 7,7 km/h (2 Bft) NO - -2,4 C -2,6 C
(c) by David Heller